createdAt,value
2023-01-12T00:01:25.239Z,1.10
2023-01-12T00:03:52.968Z,0.70
2023-01-12T00:06:20.585Z,1.10
2023-01-12T00:08:47.892Z,1.00
2023-01-12T00:11:15.373Z,1.03
2023-01-12T00:13:42.464Z,1.03
2023-01-12T00:16:34.028Z,1.17
2023-01-12T00:19:06.940Z,1.17
2023-01-12T00:21:38.433Z,1.20
2023-01-12T00:24:08.468Z,0.90
2023-01-12T00:26:35.500Z,1.33
2023-01-12T00:29:02.620Z,0.90
2023-01-12T00:31:29.723Z,1.17
2023-01-12T00:33:56.852Z,0.90
2023-01-12T00:36:23.967Z,1.07
2023-01-12T00:38:51.038Z,0.90
2023-01-12T00:41:38.229Z,1.20
2023-01-12T00:44:24.796Z,1.30
2023-01-12T00:46:51.882Z,0.77
2023-01-12T00:49:19.003Z,0.90
2023-01-12T00:51:46.106Z,0.70
2023-01-12T00:54:13.188Z,1.10
2023-01-12T00:56:40.323Z,0.93
2023-01-12T00:59:07.448Z,1.00
2023-01-12T01:01:35.333Z,1.03
2023-01-12T01:04:02.710Z,0.63
2023-01-12T01:06:29.848Z,0.80
2023-01-12T01:08:56.992Z,0.80
2023-01-12T01:11:24.121Z,0.90
2023-01-12T01:13:51.696Z,0.83
2023-01-12T01:16:19.129Z,0.70
2023-01-12T01:18:46.469Z,1.07
2023-01-12T01:21:14.507Z,1.00
2023-01-12T01:23:42.395Z,1.00
2023-01-12T01:26:11.836Z,0.80
2023-01-12T01:28:38.922Z,0.50
2023-01-12T01:31:10.364Z,0.70
2023-01-12T01:33:37.466Z,0.77
2023-01-12T01:36:04.934Z,0.70
2023-01-12T01:38:32.295Z,0.60
2023-01-12T01:40:59.622Z,0.60
2023-01-12T01:43:27.740Z,0.73
2023-01-12T01:45:58.820Z,0.60
2023-01-12T01:48:27.553Z,0.80
2023-01-12T01:50:57.703Z,0.90
2023-01-12T01:53:25.995Z,0.80
2023-01-12T01:55:55.421Z,0.70
2023-01-12T01:58:43.909Z,0.80
2023-01-12T02:01:11.499Z,0.60
2023-01-12T02:03:39.091Z,0.70
2023-01-12T02:06:07.843Z,1.00
2023-01-12T02:08:34.926Z,0.80
2023-01-12T02:11:02.984Z,0.70
2023-01-12T02:13:49.728Z,0.70
2023-01-12T02:16:29.198Z,0.80
2023-01-12T02:19:11.457Z,0.33
2023-01-12T02:21:57.128Z,0.80
2023-01-12T02:24:43.155Z,0.90
2023-01-12T02:27:21.836Z,0.60
2023-01-12T02:30:01.249Z,0.50
2023-01-12T02:32:37.301Z,0.50
2023-01-12T02:35:22.410Z,0.60
2023-01-12T02:37:53.796Z,0.33
2023-01-12T02:40:33.505Z,0.60
2023-01-12T02:43:13.585Z,0.97
2023-01-12T02:45:43.727Z,0.80
2023-01-12T02:48:16.608Z,0.80
2023-01-12T02:50:46.558Z,0.83
2023-01-12T02:53:16.527Z,0.60
2023-01-12T02:55:43.772Z,0.50
2023-01-12T02:58:11.860Z,0.60
2023-01-12T03:00:40.651Z,0.50
2023-01-12T03:03:07.886Z,0.70
2023-01-12T03:05:35.006Z,0.70
2023-01-12T03:08:06.111Z,0.70
2023-01-12T03:10:46.690Z,0.70
2023-01-12T03:13:15.369Z,0.90
2023-01-12T03:15:45.217Z,0.93
2023-01-12T03:18:16.424Z,0.70
2023-01-12T03:20:53.768Z,1.10
2023-01-12T03:23:27.036Z,0.60
2023-01-12T03:25:55.637Z,1.00
2023-01-12T03:28:23.643Z,0.90
2023-01-12T03:30:56.618Z,1.20
2023-01-12T03:33:24.288Z,0.77
2023-01-12T03:35:55.254Z,0.70
2023-01-12T03:38:32.532Z,0.60
2023-01-12T03:41:06.568Z,0.60
2023-01-12T03:43:38.552Z,0.80
2023-01-12T03:46:10.593Z,0.80
2023-01-12T03:48:49.392Z,0.73
2023-01-12T03:51:20.399Z,0.77
2023-01-12T03:53:49.623Z,0.57
2023-01-12T03:56:17.614Z,0.83
2023-01-12T03:58:45.252Z,0.53
2023-01-12T04:01:12.696Z,0.60
2023-01-12T04:03:39.914Z,0.80
2023-01-12T04:06:08.336Z,0.53
2023-01-12T04:08:35.501Z,0.40
2023-01-12T04:11:21.392Z,0.60
2023-01-12T04:13:48.491Z,0.70
2023-01-12T04:16:15.663Z,0.77
2023-01-12T04:18:42.757Z,0.60
2023-01-12T04:21:29.806Z,0.57
2023-01-12T04:23:56.885Z,0.60
2023-01-12T04:26:24.092Z,0.80
2023-01-12T04:28:51.198Z,0.47
2023-01-12T04:31:18.331Z,0.73
2023-01-12T04:33:45.414Z,0.70
2023-01-12T04:36:12.807Z,0.97
2023-01-12T04:38:40.229Z,0.90
2023-01-12T04:41:08.373Z,0.80
2023-01-12T04:43:36.000Z,0.90
2023-01-12T04:46:10.478Z,0.97
2023-01-12T04:48:43.575Z,0.70
2023-01-12T04:51:10.688Z,0.53
2023-01-12T04:53:37.784Z,0.67
2023-01-12T04:56:05.688Z,0.43
2023-01-12T04:58:32.788Z,0.80
2023-01-12T05:01:08.306Z,0.83
2023-01-12T05:03:35.418Z,0.60
2023-01-12T05:06:02.856Z,0.70
2023-01-12T05:08:48.636Z,0.70
2023-01-12T05:11:15.802Z,1.20
2023-01-12T05:13:42.939Z,1.03
2023-01-12T05:16:15.397Z,0.73
2023-01-12T05:18:42.888Z,0.67
2023-01-12T05:21:09.947Z,0.63
2023-01-12T05:23:37.084Z,0.90
2023-01-12T05:26:04.956Z,1.00
2023-01-12T05:28:32.764Z,0.80
2023-01-12T05:31:19.405Z,0.70
2023-01-12T05:33:46.693Z,0.80
2023-01-12T05:36:14.866Z,0.97
2023-01-12T05:38:42.333Z,0.90
2023-01-12T05:41:15.820Z,0.63
2023-01-12T05:43:52.642Z,1.00
2023-01-12T05:46:20.227Z,0.60
2023-01-12T05:48:47.735Z,0.70
2023-01-12T05:51:15.020Z,0.63
2023-01-12T05:53:42.185Z,0.83
2023-01-12T05:56:11.204Z,0.60
2023-01-12T05:58:38.477Z,0.87
2023-01-12T06:01:09.379Z,0.87
2023-01-12T06:03:37.131Z,1.00
2023-01-12T06:06:05.114Z,1.23
2023-01-12T06:08:32.471Z,0.77
2023-01-12T06:11:03.204Z,0.87
2023-01-12T06:13:49.231Z,1.00
2023-01-12T06:16:16.413Z,0.60
2023-01-12T06:18:43.617Z,0.77
2023-01-12T06:21:10.965Z,0.70
2023-01-12T06:23:38.039Z,0.80
2023-01-12T06:26:06.296Z,0.60
2023-01-12T06:28:33.356Z,1.10
2023-01-12T06:31:01.645Z,1.27
2023-01-12T06:33:29.119Z,0.80
2023-01-12T06:35:56.817Z,0.97
2023-01-12T06:38:24.999Z,1.30
2023-01-12T06:40:52.407Z,1.00
2023-01-12T06:43:19.628Z,0.90
2023-01-12T06:45:46.890Z,1.00
2023-01-12T06:48:14.017Z,1.10
2023-01-12T06:50:41.144Z,1.70
2023-01-12T06:53:08.269Z,1.13
2023-01-12T06:55:35.371Z,1.20
2023-01-12T06:58:03.621Z,1.20
2023-01-12T07:00:31.503Z,0.87
2023-01-12T07:02:58.722Z,1.27
2023-01-12T07:05:25.786Z,1.10
2023-01-12T07:07:58.043Z,1.17
2023-01-12T07:10:25.106Z,1.10
2023-01-12T07:12:52.253Z,2.93
2023-01-12T07:15:20.236Z,1.67
2023-01-12T07:17:47.299Z,0.93
2023-01-12T07:20:14.390Z,1.67
2023-01-12T07:22:41.517Z,1.70
2023-01-12T07:25:08.733Z,1.60
2023-01-12T07:27:35.787Z,1.03
2023-01-12T07:30:02.832Z,1.10
2023-01-12T07:32:30.070Z,0.90
2023-01-12T07:34:57.136Z,1.10
2023-01-12T07:37:24.259Z,1.07
2023-01-12T07:39:51.314Z,1.40
2023-01-12T07:42:24.395Z,1.10
2023-01-12T07:44:51.781Z,1.20
2023-01-12T07:47:18.861Z,0.87
2023-01-12T07:49:45.997Z,1.00
2023-01-12T07:52:13.463Z,1.10
2023-01-12T07:54:40.648Z,1.20
2023-01-12T07:57:09.737Z,0.73
2023-01-12T07:59:36.936Z,1.30
2023-01-12T08:02:04.283Z,1.10
2023-01-12T08:04:31.507Z,1.10
2023-01-12T08:06:58.690Z,1.23
2023-01-12T08:09:26.167Z,1.57
2023-01-12T08:11:53.291Z,1.13
2023-01-12T08:14:24.556Z,1.20
2023-01-12T08:16:54.297Z,1.70
2023-01-12T08:19:23.897Z,1.60
2023-01-12T08:21:53.549Z,2.07
2023-01-12T08:24:23.503Z,1.00
2023-01-12T08:26:52.037Z,1.50
2023-01-12T08:29:23.290Z,1.97
2023-01-12T08:31:50.603Z,1.30
2023-01-12T08:34:17.886Z,2.17
2023-01-12T08:36:44.972Z,1.50
2023-01-12T08:39:12.120Z,1.83
2023-01-12T08:41:42.160Z,1.40
2023-01-12T08:44:10.902Z,1.17
2023-01-12T08:46:40.995Z,1.10
2023-01-12T08:49:09.784Z,2.70
2023-01-12T08:51:39.338Z,1.40
2023-01-12T08:54:07.134Z,1.00
2023-01-12T08:56:34.917Z,0.90
2023-01-12T08:59:02.402Z,1.50
2023-01-12T09:01:29.886Z,0.40
2023-01-12T09:03:57.755Z,0.70
2023-01-12T09:06:26.694Z,0.70
2023-01-12T09:08:54.694Z,0.60
2023-01-12T09:11:21.827Z,0.70
2023-01-12T09:13:49.228Z,0.80
2023-01-12T09:16:17.436Z,0.60
2023-01-12T09:18:44.556Z,0.70
2023-01-12T09:21:13.020Z,0.93
2023-01-12T09:23:40.593Z,0.50
2023-01-12T09:26:08.832Z,0.67
2023-01-12T09:28:36.265Z,0.53
2023-01-12T09:31:04.837Z,0.87
2023-01-12T09:33:32.358Z,1.27
2023-01-12T09:36:06.352Z,0.40
2023-01-12T09:38:35.497Z,0.60
2023-01-12T09:41:03.769Z,0.70
2023-01-12T09:43:49.419Z,0.80
2023-01-12T09:46:41.233Z,0.50
2023-01-12T09:49:08.344Z,0.70
2023-01-12T09:51:40.194Z,0.50
2023-01-12T09:54:07.329Z,0.53
2023-01-12T09:56:34.370Z,0.60
2023-01-12T09:59:18.512Z,0.60
2023-01-12T10:01:46.009Z,0.53
2023-01-12T10:04:13.233Z,0.50
2023-01-12T10:06:40.320Z,0.60
2023-01-12T10:09:10.827Z,0.50
2023-01-12T10:11:43.908Z,0.40
2023-01-12T10:14:29.304Z,0.50
2023-01-12T10:16:56.637Z,0.60
2023-01-12T10:19:33.847Z,0.70
2023-01-12T10:22:03.519Z,0.70
2023-01-12T10:24:30.648Z,0.60
2023-01-12T10:27:02.391Z,0.63
2023-01-12T10:29:31.240Z,0.60
2023-01-12T10:31:58.462Z,0.60
2023-01-12T10:34:25.599Z,0.70
2023-01-12T10:36:57.876Z,0.60
2023-01-12T10:39:27.782Z,0.50
2023-01-12T10:42:33.960Z,0.70
2023-01-12T10:45:12.227Z,0.63
2023-01-12T10:47:39.324Z,0.70
2023-01-12T10:50:27.268Z,0.90
2023-01-12T10:52:56.781Z,0.70
2023-01-12T10:55:24.719Z,0.60
2023-01-12T10:57:52.014Z,0.97
2023-01-12T11:00:26.033Z,0.47
2023-01-12T11:02:53.666Z,0.60
2023-01-12T11:05:34.887Z,0.60
2023-01-12T11:08:02.169Z,0.50
2023-01-12T11:10:36.470Z,0.60
2023-01-12T11:13:04.654Z,0.53
2023-01-12T11:15:38.700Z,0.57
2023-01-12T11:18:11.642Z,0.53
2023-01-12T11:20:44.523Z,0.57
2023-01-12T11:23:15.250Z,0.50
2023-01-12T11:25:46.441Z,0.40
2023-01-12T11:28:19.671Z,0.30
2023-01-12T11:30:51.913Z,0.70
2023-01-12T11:33:35.758Z,0.60
2023-01-12T11:36:02.857Z,0.60
2023-01-12T11:38:34.546Z,0.47
2023-01-12T11:41:02.317Z,0.50
2023-01-12T11:43:47.933Z,0.50
2023-01-12T11:46:22.548Z,0.50
2023-01-12T11:48:58.862Z,0.60
2023-01-12T11:51:26.157Z,0.60
2023-01-12T11:53:53.337Z,0.40
2023-01-12T11:56:20.475Z,0.50
2023-01-12T11:58:59.729Z,0.53
2023-01-12T12:01:29.790Z,0.40
2023-01-12T12:04:01.513Z,0.33
2023-01-12T12:06:47.019Z,0.40
2023-01-12T12:09:24.612Z,0.33
2023-01-12T12:11:51.656Z,0.60
2023-01-12T12:14:21.742Z,0.40
2023-01-12T12:16:48.808Z,0.50
2023-01-12T12:19:21.586Z,0.30
2023-01-12T12:21:48.709Z,0.30
2023-01-12T12:24:34.436Z,0.30
2023-01-12T12:27:10.129Z,0.40
2023-01-12T12:29:46.213Z,0.43
2023-01-12T12:32:22.204Z,0.30
2023-01-12T12:34:52.153Z,0.23
2023-01-12T12:37:28.881Z,0.43
2023-01-12T12:39:59.119Z,0.33
2023-01-12T12:42:47.423Z,0.43
2023-01-12T12:45:17.531Z,0.50
2023-01-12T12:47:53.916Z,0.60
2023-01-12T12:50:23.743Z,0.33
2023-01-12T12:53:03.214Z,0.50
2023-01-12T12:55:30.623Z,0.30
2023-01-12T12:58:18.002Z,0.30
2023-01-12T13:00:46.843Z,0.50
2023-01-12T13:03:32.548Z,0.30
2023-01-12T13:06:18.505Z,0.53
2023-01-12T13:08:46.068Z,0.40
2023-01-12T13:11:13.180Z,0.30
2023-01-12T13:13:57.898Z,0.50
2023-01-12T13:16:29.392Z,0.30
2023-01-12T13:18:56.443Z,0.37
2023-01-12T13:21:29.614Z,0.23
2023-01-12T13:24:11.769Z,0.20
2023-01-12T13:26:43.286Z,0.27
2023-01-12T13:29:28.672Z,0.50
2023-01-12T13:32:00.112Z,0.47
2023-01-12T13:34:36.076Z,0.60
2023-01-12T13:37:12.011Z,0.50
2023-01-12T13:39:41.432Z,0.50
2023-01-12T13:42:32.922Z,0.50
2023-01-12T13:45:00.013Z,0.17
2023-01-12T13:47:31.611Z,0.50
2023-01-12T13:50:00.343Z,0.63
2023-01-12T13:52:30.344Z,0.50
2023-01-12T13:54:57.421Z,0.37
2023-01-12T13:57:29.051Z,0.47
2023-01-12T14:00:10.965Z,0.80
2023-01-12T14:02:39.241Z,0.40
2023-01-12T14:05:26.053Z,0.40
2023-01-12T14:07:58.925Z,0.60
2023-01-12T14:10:25.988Z,0.70
2023-01-12T14:13:12.075Z,0.50
2023-01-12T14:16:03.923Z,0.70
2023-01-12T14:18:47.526Z,0.50
2023-01-12T14:21:27.033Z,0.60
2023-01-12T14:23:54.775Z,0.40
2023-01-12T14:26:23.759Z,0.50
2023-01-12T14:28:51.997Z,0.30
2023-01-12T14:31:19.096Z,0.47
2023-01-12T14:34:05.029Z,0.50
2023-01-12T14:36:32.106Z,0.50
2023-01-12T14:38:59.813Z,0.60
2023-01-12T14:41:47.374Z,0.50
2023-01-12T14:44:37.743Z,0.50
2023-01-12T14:47:04.974Z,0.50
2023-01-12T14:49:33.235Z,0.60
2023-01-12T14:52:04.807Z,0.83
2023-01-12T14:54:33.485Z,0.63
2023-01-12T14:57:03.418Z,0.50
2023-01-12T14:59:32.012Z,0.60
2023-01-12T15:02:18.733Z,0.60
2023-01-12T15:05:02.618Z,0.40
2023-01-12T15:07:36.912Z,0.67
2023-01-12T15:10:09.954Z,0.60
2023-01-12T15:12:39.881Z,0.60
2023-01-12T15:15:25.605Z,0.77
2023-01-12T15:18:12.278Z,0.60
2023-01-12T15:20:59.278Z,0.50
2023-01-12T15:23:51.743Z,0.60
2023-01-12T15:26:19.005Z,0.50
2023-01-12T15:28:47.259Z,0.50
2023-01-12T15:31:26.024Z,0.40
2023-01-12T15:33:53.429Z,0.50
2023-01-12T15:36:20.791Z,0.40
2023-01-12T15:38:47.882Z,0.60
2023-01-12T15:41:40.384Z,0.40
2023-01-12T15:44:20.771Z,0.60
2023-01-12T15:46:48.185Z,0.50
2023-01-12T15:49:15.736Z,0.63
2023-01-12T15:51:44.762Z,0.40
2023-01-12T15:54:13.425Z,0.60
2023-01-12T15:56:40.719Z,0.50
2023-01-12T15:59:07.800Z,1.20
2023-01-12T16:01:38.475Z,0.70
2023-01-12T16:04:40.221Z,0.60
2023-01-12T16:06:53.456Z,1.00
2023-01-12T16:09:20.593Z,0.57
2023-01-12T16:11:47.666Z,0.50
2023-01-12T16:14:15.201Z,0.30
2023-01-12T16:16:42.741Z,0.70
2023-01-12T16:19:10.027Z,0.87
2023-01-12T16:21:37.201Z,1.00
2023-01-12T16:24:04.397Z,0.70
2023-01-12T16:26:31.683Z,1.50
2023-01-12T16:28:58.782Z,1.00
2023-01-12T16:31:26.286Z,1.00
2023-01-12T16:33:53.387Z,0.73
2023-01-12T16:36:20.492Z,0.40
2023-01-12T16:38:47.571Z,0.90
2023-01-12T16:41:19.045Z,0.80
2023-01-12T16:43:46.867Z,0.50
2023-01-12T16:46:14.532Z,0.60
2023-01-12T16:48:42.153Z,0.80
2023-01-12T16:51:14.008Z,0.90
2023-01-12T16:53:41.663Z,1.10
2023-01-12T16:56:11.662Z,0.80
2023-01-12T16:58:39.245Z,0.47
2023-01-12T17:01:13.515Z,0.60
2023-01-12T17:03:43.842Z,1.00
2023-01-12T17:06:12.497Z,0.40
2023-01-12T17:08:39.885Z,0.60
2023-01-12T17:11:11.438Z,0.60
2023-01-12T17:13:38.920Z,0.90
2023-01-12T17:16:09.986Z,0.60
2023-01-12T17:18:37.633Z,0.50
2023-01-12T17:21:06.542Z,0.70
2023-01-12T17:23:33.684Z,1.00
2023-01-12T17:26:04.296Z,0.80
2023-01-12T17:28:31.757Z,0.77
2023-01-12T17:30:58.892Z,0.60
2023-01-12T17:33:26.130Z,0.60
2023-01-12T17:35:53.450Z,0.57
2023-01-12T17:38:20.593Z,0.70
2023-01-12T17:40:48.324Z,0.80
2023-01-12T17:43:15.434Z,0.60
2023-01-12T17:45:43.599Z,0.90
2023-01-12T17:48:17.945Z,0.67
2023-01-12T17:50:45.017Z,0.53
2023-01-12T17:53:12.463Z,0.60
2023-01-12T17:55:47.575Z,0.73
2023-01-12T17:58:18.434Z,0.73
2023-01-12T18:00:45.571Z,0.50
2023-01-12T18:03:12.821Z,0.50
2023-01-12T18:05:42.449Z,0.50
2023-01-12T18:08:09.611Z,0.70
2023-01-12T18:10:36.659Z,0.67
2023-01-12T18:13:03.718Z,0.70
2023-01-12T18:15:30.962Z,0.50
2023-01-12T18:17:58.075Z,0.70
2023-01-12T18:20:25.159Z,0.73
2023-01-12T18:22:55.057Z,0.50
2023-01-12T18:25:22.138Z,0.53
2023-01-12T18:27:49.208Z,0.57
2023-01-12T18:30:16.444Z,0.77
2023-01-12T18:32:43.603Z,0.60
2023-01-12T18:35:10.770Z,0.40
2023-01-12T18:37:37.830Z,0.70
2023-01-12T18:40:05.100Z,0.50
2023-01-12T18:42:50.359Z,0.50
2023-01-12T18:45:18.533Z,0.67
2023-01-12T18:48:04.440Z,0.60
2023-01-12T18:50:50.964Z,0.40
2023-01-12T18:53:33.305Z,0.70
2023-01-12T18:56:02.968Z,0.40
2023-01-12T18:58:31.684Z,0.50
2023-01-12T19:01:01.686Z,0.53
2023-01-12T19:03:28.785Z,0.30
2023-01-12T19:06:21.727Z,0.50
2023-01-12T19:09:07.631Z,0.40
2023-01-12T19:11:34.735Z,0.50
2023-01-12T19:14:20.326Z,0.53
2023-01-12T19:17:06.427Z,0.40
2023-01-12T19:19:34.842Z,0.40
2023-01-12T19:22:21.702Z,0.50
2023-01-12T19:25:07.686Z,0.30
2023-01-12T19:27:53.687Z,0.53
2023-01-12T19:30:21.067Z,0.73
2023-01-12T19:32:48.206Z,0.50
2023-01-12T19:35:15.293Z,0.40
2023-01-12T19:37:46.909Z,0.60
2023-01-12T19:40:28.135Z,0.40
2023-01-12T19:43:12.562Z,0.40
2023-01-12T19:45:43.820Z,0.40
2023-01-12T19:48:12.427Z,0.30
2023-01-12T19:50:40.613Z,0.40
2023-01-12T19:53:09.687Z,0.30
2023-01-12T19:55:36.848Z,0.40
2023-01-12T19:58:08.671Z,0.40
2023-01-12T20:00:36.741Z,0.20
2023-01-12T20:03:03.961Z,0.40
2023-01-12T20:05:31.115Z,0.43
2023-01-12T20:07:58.416Z,0.27
2023-01-12T20:10:25.540Z,0.33
2023-01-12T20:12:52.741Z,0.20
2023-01-12T20:15:20.663Z,0.30
2023-01-12T20:17:51.039Z,0.27
2023-01-12T20:20:18.522Z,0.30
2023-01-12T20:22:46.767Z,0.30
2023-01-12T20:25:13.903Z,0.23
2023-01-12T20:27:41.089Z,0.23
2023-01-12T20:30:10.721Z,0.20
2023-01-12T20:32:42.464Z,0.20
2023-01-12T20:35:10.609Z,0.30
2023-01-12T20:37:37.742Z,0.40
2023-01-12T20:40:04.955Z,0.70
2023-01-12T20:42:32.169Z,0.30
2023-01-12T20:45:00.163Z,0.33
2023-01-12T20:47:28.073Z,0.30
2023-01-12T20:49:55.136Z,0.30
2023-01-12T20:52:23.304Z,0.30
2023-01-12T20:54:50.480Z,0.30
2023-01-12T20:57:18.074Z,0.40
2023-01-12T20:59:45.532Z,0.20
2023-01-12T21:02:17.837Z,0.20
2023-01-12T21:04:44.925Z,0.30
2023-01-12T21:07:12.683Z,0.23
2023-01-12T21:09:39.888Z,0.30
2023-01-12T21:12:07.266Z,0.27
2023-01-12T21:14:34.708Z,0.30
2023-01-12T21:17:02.317Z,0.30
2023-01-12T21:19:29.703Z,0.20
2023-01-12T21:21:56.892Z,0.20
2023-01-12T21:24:24.787Z,0.13
2023-01-12T21:26:51.843Z,0.20
2023-01-12T21:29:18.936Z,0.33
2023-01-12T21:31:46.132Z,0.30
2023-01-12T21:34:13.282Z,0.20
2023-01-12T21:36:40.322Z,0.20
2023-01-12T21:39:07.524Z,0.10
2023-01-12T21:41:54.589Z,0.10
2023-01-12T21:44:21.701Z,0.20
2023-01-12T21:46:49.094Z,0.20
2023-01-12T21:49:16.765Z,0.30
2023-01-12T21:51:43.886Z,0.10
2023-01-12T21:54:11.041Z,0.10
2023-01-12T21:56:38.200Z,0.27
2023-01-12T21:59:05.290Z,0.20
2023-01-12T22:01:33.141Z,0.20
2023-01-12T22:04:00.392Z,0.30
2023-01-12T22:06:27.566Z,0.20
2023-01-12T22:08:54.630Z,0.20
2023-01-12T22:11:21.719Z,0.30
2023-01-12T22:13:48.878Z,0.20
2023-01-12T22:16:16.539Z,0.10
2023-01-12T22:18:44.736Z,0.20
2023-01-12T22:21:13.457Z,0.20
2023-01-12T22:23:40.861Z,0.20
2023-01-12T22:26:09.377Z,0.10
2023-01-12T22:28:37.594Z,0.20
2023-01-12T22:31:11.851Z,0.20
2023-01-12T22:33:39.287Z,0.20
2023-01-12T22:36:06.999Z,0.10
2023-01-12T22:38:34.515Z,0.30
2023-01-12T22:41:08.551Z,0.10
2023-01-12T22:43:40.616Z,0.10
2023-01-12T22:46:17.713Z,0.13
2023-01-12T22:48:44.848Z,0.20
2023-01-12T22:51:12.005Z,0.10
2023-01-12T22:53:39.082Z,0.17
2023-01-12T22:56:06.447Z,0.10
2023-01-12T22:58:33.723Z,0.30
2023-01-12T23:01:07.833Z,0.10
2023-01-12T23:03:35.475Z,0.10
2023-01-12T23:06:03.111Z,0.10
2023-01-12T23:08:30.514Z,0.20
2023-01-12T23:11:08.920Z,0.10
2023-01-12T23:13:36.297Z,0.20
2023-01-12T23:16:06.213Z,0.13
2023-01-12T23:18:34.375Z,0.20
2023-01-12T23:21:10.949Z,0.30
2023-01-12T23:23:38.807Z,0.17
2023-01-12T23:26:06.760Z,0.20
2023-01-12T23:28:36.743Z,0.20
2023-01-12T23:31:08.574Z,0.10
2023-01-12T23:33:36.293Z,0.20
2023-01-12T23:36:08.035Z,0.20
2023-01-12T23:38:35.351Z,0.20
2023-01-12T23:41:16.294Z,0.10
2023-01-12T23:43:43.422Z,0.30
2023-01-12T23:46:10.678Z,0.30
2023-01-12T23:48:37.903Z,0.10
2023-01-12T23:51:05.678Z,0.20
2023-01-12T23:53:33.059Z,0.20
2023-01-12T23:56:05.038Z,0.13
2023-01-12T23:58:32.178Z,0.10
